JAL16 RJTT-KLAX
Flight info
| Callsign | JAL16 |
|---|---|
| Flight time | N/A |
| Altitude | 35000 |
| Route | INUBO Y808 NOLAX Y812 ADNAP OTR7 EMRON 41N160E 43N170E 44N180E/N0497F370 45N170W 45N160W 46N150W 45N140W/N0481F390 41N130W DCT TRYSH DCT ENI DCT OAK DCT BURGL IRNMN2 |
| Aircraft | A35K/H-SDE2E3GHIJ3J4J5LM1ORWXY/LB1D1 |
Departure
| Time | 2026-05-04 12:14 |
|---|---|
| Airport | Tokyo Haneda International Airport (RJTT) |
Arrival
| Time | N/A |
|---|---|
| Airport | Los Angeles International Airport (KLAX) |
| Time | Latitude | Longitude | Altitude | Speed | Heading |
|---|---|---|---|---|---|
| 2026-05-04 11:06 | 35.54762 | 139.76895 | 29 ft | 0 kts | 240° |
| 2026-05-04 11:56 | 35.54763 | 139.76897 | 29 ft | 2 kts | 240° |
| 2026-05-04 11:56 | 35.54776 | 139.76924 | 28 ft | 4 kts | 240° |
| 2026-05-04 11:56 | 35.54784 | 139.76941 | 28 ft | 2 kts | 240° |
| 2026-05-04 11:57 | 35.54795 | 139.76977 | 26 ft | 4 kts | 273° |
| 2026-05-04 11:57 | 35.54792 | 139.76998 | 25 ft | 4 kts | 301° |
| 2026-05-04 11:57 | 35.54768 | 139.77025 | 26 ft | 4 kts | 330° |
| 2026-05-04 11:57 | 35.54752 | 139.77036 | 27 ft | 4 kts | 330° |
| 2026-05-04 11:58 | 35.54721 | 139.77058 | 27 ft | 3 kts | 330° |
| 2026-05-04 11:58 | 35.54710 | 139.77065 | 26 ft | 4 kts | 330° |
| 2026-05-04 11:58 | 35.54686 | 139.77082 | 25 ft | 4 kts | 330° |
| 2026-05-04 11:58 | 35.54663 | 139.77099 | 25 ft | 4 kts | 330° |
| 2026-05-04 11:59 | 35.54647 | 139.77110 | 27 ft | 1 kts | 330° |
| 2026-05-04 12:02 | 35.54694 | 139.77086 | 28 ft | 4 kts | 352° |
| 2026-05-04 12:03 | 35.54715 | 139.77091 | 28 ft | 2 kts | 22° |
| 2026-05-04 12:03 | 35.54725 | 139.77101 | 29 ft | 3 kts | 41° |
| 2026-05-04 12:03 | 35.54741 | 139.77123 | 29 ft | 4 kts | 50° |
| 2026-05-04 12:03 | 35.54760 | 139.77158 | 30 ft | 6 kts | 58° |
| 2026-05-04 12:04 | 35.54785 | 139.77209 | 30 ft | 8 kts | 60° |
| 2026-05-04 12:04 | 35.54823 | 139.77289 | 29 ft | 13 kts | 59° |
| 2026-05-04 12:04 | 35.54869 | 139.77393 | 27 ft | 13 kts | 71° |
| 2026-05-04 12:04 | 35.54828 | 139.77482 | 31 ft | 13 kts | 152° |
| 2026-05-04 12:05 | 35.54743 | 139.77542 | 31 ft | 15 kts | 149° |
| 2026-05-04 12:05 | 35.54649 | 139.77609 | 28 ft | 17 kts | 150° |
| 2026-05-04 12:05 | 35.54546 | 139.77682 | 27 ft | 17 kts | 150° |
| 2026-05-04 12:05 | 35.54437 | 139.77760 | 31 ft | 19 kts | 150° |
| 2026-05-04 12:06 | 35.54317 | 139.77845 | 29 ft | 21 kts | 149° |
| 2026-05-04 12:06 | 35.54193 | 139.77933 | 30 ft | 18 kts | 150° |
| 2026-05-04 12:06 | 35.54096 | 139.78002 | 28 ft | 11 kts | 144° |
| 2026-05-04 12:06 | 35.54074 | 139.78086 | 28 ft | 11 kts | 76° |
| 2026-05-04 12:07 | 35.54109 | 139.78168 | 30 ft | 10 kts | 60° |
| 2026-05-04 12:07 | 35.54140 | 139.78234 | 29 ft | 9 kts | 60° |
| 2026-05-04 12:07 | 35.54177 | 139.78312 | 27 ft | 12 kts | 60° |
| 2026-05-04 12:07 | 35.54218 | 139.78400 | 28 ft | 12 kts | 59° |
| 2026-05-04 12:08 | 35.54260 | 139.78488 | 29 ft | 12 kts | 60° |
| 2026-05-04 12:08 | 35.54299 | 139.78570 | 33 ft | 10 kts | 59° |
| 2026-05-04 12:08 | 35.54334 | 139.78644 | 35 ft | 10 kts | 59° |
| 2026-05-04 12:08 | 35.54375 | 139.78731 | 38 ft | 13 kts | 59° |
| 2026-05-04 12:09 | 35.54428 | 139.78840 | 40 ft | 16 kts | 60° |
| 2026-05-04 12:09 | 35.54486 | 139.78964 | 45 ft | 17 kts | 59° |
| 2026-05-04 12:09 | 35.54552 | 139.79103 | 43 ft | 21 kts | 60° |
| 2026-05-04 12:09 | 35.54636 | 139.79279 | 36 ft | 26 kts | 59° |
| 2026-05-04 12:10 | 35.54730 | 139.79479 | 33 ft | 27 kts | 59° |
| 2026-05-04 12:10 | 35.54792 | 139.79622 | 31 ft | 14 kts | 77° |
| 2026-05-04 12:10 | 35.54738 | 139.79714 | 30 ft | 16 kts | 150° |
| 2026-05-04 12:10 | 35.54635 | 139.79786 | 30 ft | 18 kts | 150° |
| 2026-05-04 12:11 | 35.54523 | 139.79866 | 29 ft | 20 kts | 150° |
| 2026-05-04 12:11 | 35.54397 | 139.79955 | 28 ft | 22 kts | 150° |
| 2026-05-04 12:11 | 35.54261 | 139.80053 | 27 ft | 23 kts | 150° |
| 2026-05-04 12:11 | 35.54115 | 139.80156 | 27 ft | 25 kts | 150° |
| 2026-05-04 12:12 | 35.53993 | 139.80242 | 29 ft | 18 kts | 150° |
| 2026-05-04 12:12 | 35.53917 | 139.80319 | 32 ft | 12 kts | 105° |
| 2026-05-04 12:12 | 35.53933 | 139.80401 | 36 ft | 9 kts | 63° |
| 2026-05-04 12:12 | 35.53966 | 139.80465 | 39 ft | 9 kts | 50° |
| 2026-05-04 12:13 | 35.54018 | 139.80474 | 39 ft | 8 kts | 343° |
| 2026-05-04 12:14 | 35.58554 | 139.79078 | 1908 ft | 214 kts | 34° |
| 2026-05-04 12:15 | 35.59512 | 139.80660 | 2242 ft | 242 kts | 48° |
| 2026-05-04 12:15 | 35.60501 | 139.82347 | 2764 ft | 252 kts | 47° |
| 2026-05-04 12:15 | 35.61199 | 139.84429 | 3291 ft | 276 kts | 77° |
| 2026-05-04 12:15 | 35.61199 | 139.86840 | 3905 ft | 286 kts | 89° |
| 2026-05-04 12:16 | 35.61084 | 139.89305 | 4516 ft | 291 kts | 89° |
| 2026-05-04 12:16 | 35.61050 | 139.91780 | 5112 ft | 294 kts | 83° |
| 2026-05-04 12:16 | 35.61656 | 139.94142 | 5753 ft | 287 kts | 51° |
| 2026-05-04 12:16 | 35.63103 | 139.95753 | 6344 ft | 279 kts | 21° |
| 2026-05-04 12:17 | 35.64956 | 139.96343 | 6937 ft | 274 kts | 359° |
| 2026-05-04 12:17 | 35.66843 | 139.96466 | 7578 ft | 277 kts | 357° |
| 2026-05-04 12:17 | 35.68800 | 139.96567 | 8241 ft | 283 kts | 358° |
| 2026-05-04 12:17 | 35.70800 | 139.96682 | 8903 ft | 289 kts | 358° |
| 2026-05-04 12:18 | 35.72806 | 139.96766 | 9543 ft | 293 kts | 354° |
| 2026-05-04 12:18 | 35.74799 | 139.96313 | 10149 ft | 291 kts | 336° |
| 2026-05-04 12:18 | 35.76748 | 139.95435 | 10517 ft | 306 kts | 333° |
| 2026-05-04 12:18 | 35.78777 | 139.94451 | 10843 ft | 323 kts | 333° |
| 2026-05-04 12:19 | 35.80933 | 139.93416 | 11194 ft | 338 kts | 333° |
| 2026-05-04 12:19 | 35.83182 | 139.92348 | 11521 ft | 354 kts | 333° |
| 2026-05-04 12:19 | 35.85535 | 139.91236 | 11829 ft | 369 kts | 333° |
| 2026-05-04 12:19 | 35.87989 | 139.90128 | 12151 ft | 384 kts | 337° |
| 2026-05-04 12:20 | 35.90703 | 139.89688 | 12632 ft | 405 kts | 356° |
| 2026-05-04 12:20 | 35.93519 | 139.90353 | 13221 ft | 423 kts | 14° |
| 2026-05-04 12:20 | 35.96119 | 139.92070 | 13718 ft | 439 kts | 32° |
| 2026-05-04 12:20 | 35.98343 | 139.94798 | 14122 ft | 453 kts | 51° |
| 2026-05-04 12:21 | 35.99970 | 139.98122 | 14537 ft | 462 kts | 61° |
| 2026-05-04 12:21 | 36.01465 | 140.01691 | 14815 ft | 472 kts | 62° |
| 2026-05-04 12:21 | 36.02921 | 140.05347 | 15277 ft | 477 kts | 67° |
| 2026-05-04 12:21 | 36.03806 | 140.09306 | 15674 ft | 480 kts | 85° |
| 2026-05-04 12:22 | 36.03843 | 140.13413 | 16098 ft | 479 kts | 99° |
| 2026-05-04 12:22 | 36.03474 | 140.17519 | 16551 ft | 482 kts | 102° |
| 2026-05-04 12:22 | 36.03063 | 140.21647 | 16958 ft | 486 kts | 102° |
| 2026-05-04 12:22 | 36.02602 | 140.25800 | 17394 ft | 486 kts | 108° |
| 2026-05-04 12:23 | 36.01598 | 140.29704 | 17809 ft | 475 kts | 123° |
| 2026-05-04 12:23 | 35.99940 | 140.33173 | 18214 ft | 466 kts | 133° |
| 2026-05-04 12:23 | 35.98098 | 140.36444 | 18575 ft | 467 kts | 135° |
| 2026-05-04 12:23 | 35.96215 | 140.39704 | 18949 ft | 471 kts | 135° |
| 2026-05-04 12:24 | 35.94287 | 140.43021 | 19377 ft | 472 kts | 136° |
| 2026-05-04 12:24 | 35.92373 | 140.46309 | 19832 ft | 473 kts | 136° |
| 2026-05-04 12:24 | 35.90462 | 140.49580 | 20185 ft | 477 kts | 136° |
| 2026-05-04 12:24 | 35.88517 | 140.52905 | 20567 ft | 480 kts | 137° |
| 2026-05-04 12:25 | 35.86562 | 140.56244 | 20957 ft | 483 kts | 137° |
| 2026-05-04 12:25 | 35.84582 | 140.59623 | 21336 ft | 486 kts | 137° |
| 2026-05-04 12:25 | 35.82600 | 140.63000 | 21705 ft | 490 kts | 137° |
| 2026-05-04 12:25 | 35.80589 | 140.66424 | 22030 ft | 493 kts | 137° |
| 2026-05-04 12:26 | 35.78578 | 140.69846 | 22415 ft | 496 kts | 138° |
| 2026-05-04 12:26 | 35.76544 | 140.73302 | 22773 ft | 499 kts | 138° |
| 2026-05-04 12:26 | 35.74499 | 140.76782 | 23123 ft | 503 kts | 137° |
| 2026-05-04 12:26 | 35.72609 | 140.80496 | 23430 ft | 522 kts | 128° |
| 2026-05-04 12:27 | 35.71127 | 140.84660 | 23740 ft | 534 kts | 122° |
| 2026-05-04 12:27 | 35.69809 | 140.88961 | 24031 ft | 539 kts | 120° |
| 2026-05-04 12:27 | 35.68569 | 140.93267 | 24302 ft | 543 kts | 120° |
| 2026-05-04 12:27 | 35.67329 | 140.97656 | 24636 ft | 545 kts | 120° |
| 2026-05-04 12:28 | 35.66075 | 141.02076 | 25000 ft | 546 kts | 120° |
| 2026-05-04 12:28 | 35.64813 | 141.06465 | 25368 ft | 547 kts | 120° |
| 2026-05-04 12:28 | 35.63521 | 141.10892 | 25764 ft | 549 kts | 120° |
| 2026-05-04 12:28 | 35.62216 | 141.15322 | 26104 ft | 551 kts | 121° |
| 2026-05-04 12:29 | 35.60909 | 141.19732 | 26561 ft | 551 kts | 121° |
| 2026-05-04 12:29 | 35.59578 | 141.24205 | 26994 ft | 553 kts | 121° |
| 2026-05-04 12:29 | 35.58254 | 141.28639 | 27365 ft | 555 kts | 121° |
| 2026-05-04 12:29 | 35.56935 | 141.33052 | 27729 ft | 557 kts | 121° |
| 2026-05-04 12:30 | 35.55596 | 141.37527 | 28101 ft | 559 kts | 121° |
| 2026-05-04 12:30 | 35.54251 | 141.42019 | 28468 ft | 561 kts | 121° |
| 2026-05-04 12:30 | 35.52898 | 141.46532 | 28770 ft | 563 kts | 120° |
| 2026-05-04 12:30 | 35.51552 | 141.51030 | 29331 ft | 560 kts | 121° |
| 2026-05-04 12:31 | 35.50211 | 141.55512 | 29910 ft | 556 kts | 121° |
| 2026-05-04 12:31 | 35.48876 | 141.59960 | 30325 ft | 555 kts | 121° |
| 2026-05-04 12:31 | 35.47540 | 141.64397 | 30719 ft | 553 kts | 121° |
| 2026-05-04 12:31 | 35.46205 | 141.68817 | 31107 ft | 552 kts | 121° |
| 2026-05-04 12:32 | 35.45028 | 141.73339 | 31485 ft | 562 kts | 114° |
| 2026-05-04 12:32 | 35.44147 | 141.82963 | 32238 ft | 577 kts | 100° |
| 2026-05-04 12:32 | 35.44052 | 141.87888 | 32640 ft | 577 kts | 98° |
| 2026-05-04 12:33 | 35.44024 | 141.92787 | 32991 ft | 577 kts | 98° |
| 2026-05-04 12:33 | 35.44020 | 141.97730 | 33325 ft | 576 kts | 98° |
| 2026-05-04 12:33 | 35.44018 | 142.02644 | 33673 ft | 575 kts | 98° |
| 2026-05-04 12:33 | 35.44004 | 142.07539 | 33963 ft | 574 kts | 98° |
| 2026-05-04 12:34 | 35.43976 | 142.12430 | 34200 ft | 574 kts | 98° |
| 2026-05-04 12:34 | 35.43937 | 142.17316 | 34411 ft | 574 kts | 98° |
| 2026-05-04 12:34 | 35.43890 | 142.22152 | 34625 ft | 574 kts | 98° |
| 2026-05-04 12:34 | 35.43838 | 142.27078 | 34737 ft | 576 kts | 98° |
| 2026-05-04 12:35 | 35.43781 | 142.32011 | 34781 ft | 580 kts | 98° |
| 2026-05-04 12:35 | 35.43670 | 142.41865 | 34785 ft | 580 kts | 98° |
| 2026-05-04 12:36 | 35.43558 | 142.51748 | 34788 ft | 579 kts | 98° |
| 2026-05-04 12:36 | 35.43440 | 142.61640 | 34789 ft | 578 kts | 98° |
| 2026-05-04 12:37 | 35.43305 | 142.71506 | 34789 ft | 578 kts | 98° |
| 2026-05-04 12:37 | 35.43160 | 142.81379 | 34772 ft | 577 kts | 98° |
| 2026-05-04 12:38 | 35.43010 | 142.91218 | 34783 ft | 576 kts | 98° |
| 2026-05-04 12:38 | 35.42855 | 143.00977 | 34768 ft | 576 kts | 98° |
| 2026-05-04 12:39 | 35.42691 | 143.10788 | 34790 ft | 575 kts | 98° |
| 2026-05-04 12:39 | 35.42519 | 143.20609 | 34787 ft | 574 kts | 98° |
| 2026-05-04 12:40 | 35.43068 | 143.28799 | 34786 ft | 588 kts | 82° |
| 2026-05-04 12:40 | 35.44902 | 143.35078 | 34791 ft | 595 kts | 64° |
| 2026-05-04 12:40 | 35.47171 | 143.39341 | 34792 ft | 597 kts | 49° |
| 2026-05-04 12:41 | 35.51771 | 143.45647 | 34780 ft | 598 kts | 45° |
| 2026-05-04 12:41 | 35.57605 | 143.52964 | 34778 ft | 598 kts | 44° |
| 2026-05-04 12:42 | 35.63436 | 143.60233 | 34779 ft | 596 kts | 44° |
| 2026-05-04 12:42 | 35.69210 | 143.67562 | 34774 ft | 597 kts | 45° |
| 2026-05-04 12:43 | 35.74926 | 143.74897 | 34778 ft | 597 kts | 45° |
| 2026-05-04 12:43 | 35.80671 | 143.82293 | 34782 ft | 596 kts | 45° |
| 2026-05-04 12:44 | 35.86426 | 143.89712 | 34771 ft | 598 kts | 45° |
| 2026-05-04 12:44 | 35.92183 | 143.97148 | 34770 ft | 599 kts | 45° |
| 2026-05-04 12:45 | 35.97905 | 144.04554 | 34767 ft | 599 kts | 45° |
| 2026-05-04 12:45 | 36.03648 | 144.12005 | 34760 ft | 599 kts | 45° |
| 2026-05-04 12:46 | 36.09381 | 144.19469 | 34758 ft | 599 kts | 45° |
| 2026-05-04 12:46 | 36.15116 | 144.26956 | 34756 ft | 599 kts | 46° |
| 2026-05-04 12:47 | 36.20851 | 144.34456 | 34760 ft | 602 kts | 46° |
| 2026-05-04 12:47 | 36.26612 | 144.42010 | 34755 ft | 603 kts | 46° |
| 2026-05-04 12:48 | 36.32379 | 144.49589 | 34755 ft | 603 kts | 46° |
| 2026-05-04 12:48 | 36.38103 | 144.57128 | 34752 ft | 603 kts | 46° |
| 2026-05-04 12:49 | 36.43859 | 144.64728 | 34757 ft | 603 kts | 46° |
| 2026-05-04 12:49 | 36.49618 | 144.72349 | 34754 ft | 603 kts | 46° |
| 2026-05-04 12:50 | 36.55366 | 144.79972 | 34751 ft | 604 kts | 46° |
| 2026-05-04 12:50 | 36.61107 | 144.87605 | 34752 ft | 605 kts | 46° |
| 2026-05-04 12:51 | 36.66849 | 144.95256 | 34751 ft | 605 kts | 46° |
| 2026-05-04 12:51 | 36.72553 | 145.02875 | 34742 ft | 605 kts | 46° |
| 2026-05-04 12:52 | 36.78295 | 145.10562 | 34747 ft | 604 kts | 46° |
| 2026-05-04 12:52 | 36.84027 | 145.18254 | 34738 ft | 604 kts | 46° |
| 2026-05-04 12:53 | 36.89742 | 145.25942 | 34755 ft | 604 kts | 46° |
| 2026-05-04 12:53 | 36.95425 | 145.33604 | 34736 ft | 603 kts | 46° |
| 2026-05-04 12:54 | 37.01122 | 145.41304 | 34731 ft | 603 kts | 46° |
| 2026-05-04 12:54 | 37.06813 | 145.49014 | 34724 ft | 603 kts | 46° |
| 2026-05-04 12:55 | 37.12504 | 145.56743 | 34719 ft | 601 kts | 46° |
| 2026-05-04 12:55 | 37.17965 | 145.64661 | 34721 ft | 600 kts | 57° |
| 2026-05-04 12:55 | 37.20008 | 145.69193 | 34717 ft | 595 kts | 70° |
| 2026-05-04 12:56 | 37.21456 | 145.74027 | 34716 ft | 591 kts | 75° |
| 2026-05-04 12:56 | 37.23863 | 145.83875 | 34709 ft | 589 kts | 79° |
| 2026-05-04 12:57 | 37.26042 | 145.93731 | 34706 ft | 588 kts | 79° |
| 2026-05-04 12:57 | 37.28236 | 146.03646 | 34699 ft | 588 kts | 79° |
| 2026-05-04 12:58 | 37.30461 | 146.13539 | 34695 ft | 588 kts | 79° |
| 2026-05-04 12:58 | 37.32696 | 146.23435 | 34692 ft | 588 kts | 79° |
| 2026-05-04 12:59 | 37.34924 | 146.33333 | 34681 ft | 588 kts | 79° |
| 2026-05-04 12:59 | 37.37136 | 146.43220 | 34689 ft | 588 kts | 79° |
| 2026-05-04 13:00 | 37.39340 | 146.53117 | 34689 ft | 588 kts | 79° |
| 2026-05-04 13:00 | 37.41534 | 146.63017 | 34688 ft | 588 kts | 79° |
| 2026-05-04 13:01 | 37.43721 | 146.72924 | 34690 ft | 588 kts | 79° |
| 2026-05-04 13:01 | 37.45885 | 146.82768 | 34687 ft | 587 kts | 79° |
| 2026-05-04 13:02 | 37.48055 | 146.92687 | 34683 ft | 588 kts | 79° |
| 2026-05-04 13:02 | 37.50220 | 147.02626 | 34683 ft | 588 kts | 79° |
| 2026-05-04 13:03 | 37.52373 | 147.12553 | 34675 ft | 588 kts | 79° |
| 2026-05-04 13:03 | 37.54521 | 147.22501 | 34683 ft | 587 kts | 79° |
| 2026-05-04 13:04 | 37.56645 | 147.32380 | 34683 ft | 587 kts | 79° |
| 2026-05-04 13:04 | 37.58776 | 147.42339 | 34680 ft | 587 kts | 79° |
| 2026-05-04 13:05 | 37.60894 | 147.52273 | 34676 ft | 586 kts | 79° |
| 2026-05-04 13:05 | 37.63003 | 147.62214 | 34679 ft | 585 kts | 79° |
| 2026-05-04 13:06 | 37.65083 | 147.72070 | 34681 ft | 584 kts | 79° |
| 2026-05-04 13:06 | 37.67168 | 147.81989 | 34681 ft | 584 kts | 79° |
| 2026-05-04 13:07 | 37.69242 | 147.91903 | 34688 ft | 583 kts | 79° |
| 2026-05-04 13:07 | 37.71305 | 148.01808 | 34684 ft | 582 kts | 79° |
| 2026-05-04 13:08 | 37.73359 | 148.11716 | 34688 ft | 582 kts | 80° |
| 2026-05-04 13:08 | 37.75390 | 148.21555 | 34681 ft | 582 kts | 80° |
| 2026-05-04 13:09 | 37.77428 | 148.31479 | 34687 ft | 581 kts | 80° |
| 2026-05-04 13:09 | 37.79453 | 148.41380 | 34683 ft | 581 kts | 80° |
| 2026-05-04 13:10 | 37.81468 | 148.51283 | 34681 ft | 581 kts | 80° |
| 2026-05-04 13:10 | 37.83459 | 148.61106 | 34683 ft | 580 kts | 80° |
| 2026-05-04 13:11 | 37.85453 | 148.70994 | 34686 ft | 580 kts | 80° |
| 2026-05-04 13:11 | 37.87439 | 148.80892 | 34690 ft | 579 kts | 80° |
| 2026-05-04 13:12 | 37.89412 | 148.90770 | 34693 ft | 579 kts | 80° |
| 2026-05-04 13:12 | 37.91378 | 149.00661 | 34694 ft | 579 kts | 80° |
| 2026-05-04 13:13 | 37.93336 | 149.10558 | 34693 ft | 578 kts | 80° |
| 2026-05-04 13:13 | 37.95282 | 149.20436 | 34695 ft | 577 kts | 80° |
| 2026-05-04 13:14 | 37.97221 | 149.30329 | 34692 ft | 577 kts | 80° |
| 2026-05-04 13:14 | 37.99139 | 149.40163 | 34694 ft | 577 kts | 81° |
| 2026-05-04 13:15 | 38.01058 | 149.50049 | 34693 ft | 577 kts | 81° |
| 2026-05-04 13:15 | 38.02966 | 149.59927 | 34694 ft | 577 kts | 81° |
| 2026-05-04 13:16 | 38.04871 | 149.69832 | 34698 ft | 574 kts | 81° |
| 2026-05-04 13:16 | 38.06751 | 149.79651 | 34698 ft | 572 kts | 81° |
| 2026-05-04 13:17 | 38.08605 | 149.89396 | 34694 ft | 571 kts | 81° |
| 2026-05-04 13:17 | 38.10564 | 149.99175 | 34699 ft | 574 kts | 75° |
| 2026-05-04 13:18 | 38.13540 | 150.08614 | 34701 ft | 576 kts | 70° |
| 2026-05-04 13:18 | 38.16743 | 150.17951 | 34693 ft | 577 kts | 69° |
| 2026-05-04 13:19 | 38.19984 | 150.27286 | 34696 ft | 577 kts | 69° |
| 2026-05-04 13:19 | 38.23197 | 150.36628 | 34692 ft | 577 kts | 69° |
| 2026-05-04 13:20 | 38.26376 | 150.45950 | 34695 ft | 577 kts | 69° |
| 2026-05-04 13:20 | 38.29559 | 150.55324 | 34700 ft | 576 kts | 69° |
| 2026-05-04 13:21 | 38.32742 | 150.64730 | 34692 ft | 578 kts | 69° |
| 2026-05-04 13:21 | 38.35918 | 150.74142 | 34692 ft | 578 kts | 69° |
| 2026-05-04 13:22 | 38.39087 | 150.83559 | 34688 ft | 577 kts | 69° |
| 2026-05-04 13:22 | 38.42219 | 150.92900 | 34695 ft | 576 kts | 69° |
| 2026-05-04 13:23 | 38.45363 | 151.02309 | 34696 ft | 576 kts | 69° |
| 2026-05-04 13:23 | 38.48500 | 151.11723 | 34691 ft | 576 kts | 69° |
| 2026-05-04 13:24 | 38.51627 | 151.21140 | 34694 ft | 575 kts | 69° |
| 2026-05-04 13:24 | 38.54743 | 151.30555 | 34696 ft | 575 kts | 69° |
| 2026-05-04 13:25 | 38.59405 | 151.44703 | 34698 ft | 576 kts | 69° |
| 2026-05-04 13:25 | 38.62484 | 151.54083 | 34697 ft | 576 kts | 69° |
| 2026-05-04 13:26 | 38.65576 | 151.63531 | 34694 ft | 576 kts | 69° |
| 2026-05-04 13:26 | 38.68660 | 151.72991 | 34700 ft | 575 kts | 69° |
| 2026-05-04 13:27 | 38.71215 | 151.80850 | 34696 ft | 574 kts | 69° |
| 2026-05-04 13:27 | 38.74280 | 151.90306 | 34697 ft | 574 kts | 69° |
| 2026-05-04 13:28 | 38.77336 | 151.99769 | 34703 ft | 573 kts | 69° |
| 2026-05-04 13:28 | 38.80354 | 152.09142 | 34705 ft | 571 kts | 69° |
| 2026-05-04 13:29 | 38.83382 | 152.18580 | 34692 ft | 571 kts | 69° |
| 2026-05-04 13:29 | 38.86402 | 152.28022 | 34691 ft | 571 kts | 69° |
| 2026-05-04 13:30 | 38.89417 | 152.37484 | 34711 ft | 571 kts | 69° |
| 2026-05-04 13:30 | 38.92402 | 152.46880 | 34712 ft | 572 kts | 70° |
| 2026-05-04 13:31 | 38.95402 | 152.56359 | 34706 ft | 571 kts | 69° |
| 2026-05-04 13:31 | 38.98383 | 152.65809 | 34710 ft | 570 kts | 69° |
| 2026-05-04 13:32 | 39.01341 | 152.75217 | 34708 ft | 570 kts | 69° |
| 2026-05-04 13:32 | 39.04314 | 152.84704 | 34704 ft | 570 kts | 69° |
| 2026-05-04 13:33 | 39.07275 | 152.94183 | 34713 ft | 570 kts | 69° |
| 2026-05-04 13:33 | 39.10223 | 153.03660 | 34712 ft | 570 kts | 69° |
| 2026-05-04 13:34 | 39.13164 | 153.13141 | 34706 ft | 570 kts | 70° |
| 2026-05-04 13:34 | 39.16082 | 153.22582 | 34709 ft | 570 kts | 70° |
| 2026-05-04 13:35 | 39.20465 | 153.36824 | 34708 ft | 569 kts | 70° |
| 2026-05-04 13:36 | 39.23378 | 153.46332 | 34712 ft | 569 kts | 70° |
| 2026-05-04 13:36 | 39.26280 | 153.55835 | 34721 ft | 568 kts | 70° |
| 2026-05-04 13:37 | 39.29165 | 153.65318 | 34725 ft | 567 kts | 70° |
| 2026-05-04 13:37 | 39.32040 | 153.74801 | 34717 ft | 567 kts | 69° |
| 2026-05-04 13:38 | 39.34896 | 153.84240 | 34729 ft | 566 kts | 70° |
| 2026-05-04 13:38 | 39.37752 | 153.93728 | 34720 ft | 566 kts | 70° |
| 2026-05-04 13:39 | 39.40596 | 154.03214 | 34739 ft | 566 kts | 70° |
| 2026-05-04 13:39 | 39.43439 | 154.12729 | 34734 ft | 568 kts | 70° |
| 2026-05-04 13:40 | 39.46281 | 154.22270 | 34733 ft | 568 kts | 70° |
| 2026-05-04 13:40 | 39.49117 | 154.31822 | 34736 ft | 568 kts | 70° |
| 2026-05-04 13:41 | 39.51951 | 154.41399 | 34741 ft | 569 kts | 70° |
| 2026-05-04 13:41 | 39.54755 | 154.50914 | 34738 ft | 569 kts | 70° |
| 2026-05-04 13:42 | 39.58983 | 154.65324 | 34745 ft | 570 kts | 70° |
| 2026-05-04 13:42 | 39.61787 | 154.74924 | 34741 ft | 568 kts | 70° |
| 2026-05-04 13:43 | 39.64579 | 154.84516 | 34748 ft | 568 kts | 70° |
| 2026-05-04 13:43 | 39.67358 | 154.94099 | 34750 ft | 567 kts | 70° |
| 2026-05-04 13:44 | 39.70131 | 155.03700 | 34749 ft | 566 kts | 70° |
| 2026-05-04 13:44 | 39.72862 | 155.13187 | 34753 ft | 564 kts | 70° |
| 2026-05-04 13:45 | 39.75607 | 155.22756 | 34757 ft | 563 kts | 70° |
| 2026-05-04 13:45 | 39.78337 | 155.32309 | 34759 ft | 563 kts | 70° |
| 2026-05-04 13:46 | 39.81059 | 155.41867 | 34764 ft | 563 kts | 70° |
| 2026-05-04 13:46 | 39.83754 | 155.51367 | 34767 ft | 563 kts | 70° |
| 2026-05-04 13:47 | 39.86461 | 155.60944 | 34767 ft | 563 kts | 70° |
| 2026-05-04 13:47 | 39.89165 | 155.70546 | 34768 ft | 566 kts | 70° |
| 2026-05-04 13:48 | 39.91871 | 155.80193 | 34775 ft | 567 kts | 70° |
| 2026-05-04 13:48 | 39.94573 | 155.89860 | 34774 ft | 567 kts | 70° |
| 2026-05-04 13:49 | 39.97265 | 155.99529 | 34776 ft | 568 kts | 70° |
| 2026-05-04 13:49 | 39.99960 | 156.09242 | 34775 ft | 568 kts | 70° |
| 2026-05-04 13:50 | 40.02625 | 156.18886 | 34774 ft | 568 kts | 70° |
| 2026-05-04 13:50 | 40.05300 | 156.28602 | 34780 ft | 568 kts | 70° |
| 2026-05-04 13:51 | 40.07965 | 156.38320 | 34786 ft | 568 kts | 70° |
| 2026-05-04 13:51 | 40.10619 | 156.48035 | 34785 ft | 568 kts | 70° |
| 2026-05-04 13:52 | 40.14588 | 156.62630 | 34789 ft | 568 kts | 70° |
| 2026-05-04 13:53 | 40.17203 | 156.72295 | 34789 ft | 567 kts | 70° |
| 2026-05-04 13:53 | 40.19829 | 156.82039 | 34795 ft | 567 kts | 70° |
| 2026-05-04 13:54 | 40.23749 | 156.96652 | 34804 ft | 567 kts | 70° |
| 2026-05-04 13:55 | 40.27653 | 157.11292 | 34811 ft | 567 kts | 70° |
| 2026-05-04 13:55 | 40.31523 | 157.25892 | 34827 ft | 567 kts | 70° |
| 2026-05-04 13:56 | 40.34101 | 157.35665 | 34802 ft | 568 kts | 70° |
| 2026-05-04 13:57 | 40.37963 | 157.50371 | 34823 ft | 568 kts | 70° |
| 2026-05-04 13:58 | 40.43075 | 157.69985 | 34836 ft | 567 kts | 70° |
| 2026-05-04 13:58 | 40.46873 | 157.84657 | 34839 ft | 567 kts | 70° |
| 2026-05-04 13:59 | 40.49400 | 157.94466 | 34853 ft | 567 kts | 70° |
| 2026-05-04 14:00 | 40.53175 | 158.09199 | 34853 ft | 567 kts | 70° |
| 2026-05-04 14:00 | 40.56936 | 158.23963 | 34860 ft | 567 kts | 70° |
| 2026-05-04 14:01 | 40.59430 | 158.33809 | 34857 ft | 567 kts | 70° |
| 2026-05-04 14:02 | 40.63146 | 158.48547 | 34849 ft | 567 kts | 70° |
| 2026-05-04 14:02 | 40.65622 | 158.58418 | 34864 ft | 567 kts | 70° |
| 2026-05-04 14:03 | 40.68088 | 158.68292 | 34850 ft | 567 kts | 70° |
| 2026-05-04 14:03 | 40.70549 | 158.78186 | 34875 ft | 567 kts | 70° |
| 2026-05-04 14:04 | 40.74207 | 158.92970 | 34885 ft | 567 kts | 70° |
| 2026-05-04 14:04 | 40.76642 | 159.02862 | 34890 ft | 566 kts | 70° |
| 2026-05-04 14:05 | 40.80279 | 159.17715 | 34892 ft | 566 kts | 70° |
| 2026-05-04 14:06 | 40.82695 | 159.27634 | 34887 ft | 567 kts | 71° |
| 2026-05-04 14:06 | 40.85088 | 159.37498 | 34901 ft | 567 kts | 71° |
| 2026-05-04 14:07 | 40.87483 | 159.47419 | 34908 ft | 567 kts | 71° |
| 2026-05-04 14:07 | 40.89873 | 159.57355 | 34901 ft | 568 kts | 71° |
| 2026-05-04 14:08 | 40.92261 | 159.67326 | 34926 ft | 569 kts | 71° |
| 2026-05-04 14:08 | 40.94641 | 159.77310 | 34909 ft | 569 kts | 71° |
| 2026-05-04 14:09 | 40.98180 | 159.92238 | 34919 ft | 569 kts | 70° |
| 2026-05-04 14:10 | 41.01762 | 160.07249 | 34930 ft | 570 kts | 69° |
| 2026-05-04 14:10 | 41.04270 | 160.17209 | 34929 ft | 569 kts | 69° |
| 2026-05-04 14:11 | 41.06776 | 160.27168 | 34937 ft | 569 kts | 69° |
| 2026-05-04 14:11 | 41.10469 | 160.42064 | 34939 ft | 569 kts | 69° |
| 2026-05-04 14:12 | 41.12921 | 160.52048 | 34947 ft | 569 kts | 70° |
| 2026-05-04 14:13 | 41.16590 | 160.67067 | 34954 ft | 571 kts | 69° |
| 2026-05-04 14:13 | 41.18622 | 160.75421 | 34960 ft | 572 kts | 69° |
| 2026-05-04 14:14 | 41.21065 | 160.85505 | 34960 ft | 574 kts | 69° |
| 2026-05-04 14:14 | 41.24712 | 161.00644 | 34969 ft | 572 kts | 69° |
| 2026-05-04 14:15 | 41.29536 | 161.20812 | 34975 ft | 572 kts | 69° |
| 2026-05-04 14:16 | 41.33115 | 161.35897 | 34978 ft | 572 kts | 69° |
| 2026-05-04 14:17 | 41.36689 | 161.51059 | 34980 ft | 572 kts | 69° |
| 2026-05-04 14:18 | 41.40230 | 161.66182 | 34990 ft | 572 kts | 69° |
| 2026-05-04 14:19 | 41.44936 | 161.86440 | 34994 ft | 572 kts | 69° |
| 2026-05-04 14:19 | 41.47279 | 161.96594 | 34993 ft | 572 kts | 69° |
| 2026-05-04 14:20 | 41.49610 | 162.06740 | 34996 ft | 572 kts | 69° |
| 2026-05-04 14:20 | 41.51934 | 162.16903 | 35004 ft | 572 kts | 69° |
| 2026-05-04 14:21 | 41.55390 | 162.32112 | 35012 ft | 572 kts | 69° |
| 2026-05-04 14:21 | 41.57924 | 162.43323 | 35015 ft | 572 kts | 69° |
| 2026-05-04 14:22 | 41.60215 | 162.53505 | 35020 ft | 572 kts | 69° |
| 2026-05-04 14:22 | 41.62500 | 162.63711 | 35027 ft | 572 kts | 69° |
| 2026-05-04 14:23 | 41.65888 | 162.78933 | 35023 ft | 572 kts | 69° |
| 2026-05-04 14:24 | 41.68146 | 162.89139 | 35029 ft | 572 kts | 69° |
| 2026-05-04 14:24 | 41.70396 | 162.99354 | 35039 ft | 572 kts | 69° |
| 2026-05-04 14:25 | 41.72638 | 163.09581 | 35041 ft | 572 kts | 69° |
| 2026-05-04 14:25 | 41.75974 | 163.24892 | 35045 ft | 573 kts | 69° |
| 2026-05-04 14:26 | 41.78198 | 163.35160 | 35049 ft | 573 kts | 69° |
| 2026-05-04 14:26 | 41.80408 | 163.45413 | 35047 ft | 573 kts | 69° |
| 2026-05-04 14:27 | 41.82615 | 163.55701 | 35052 ft | 573 kts | 69° |
| 2026-05-04 14:27 | 41.84812 | 163.65992 | 35068 ft | 573 kts | 69° |
| 2026-05-04 14:28 | 41.86986 | 163.76226 | 35052 ft | 574 kts | 69° |
| 2026-05-04 14:28 | 41.89170 | 163.86553 | 35058 ft | 576 kts | 69° |
| 2026-05-04 14:29 | 41.93504 | 164.07209 | 35064 ft | 576 kts | 69° |
| 2026-05-04 14:30 | 41.95657 | 164.17550 | 35070 ft | 575 kts | 69° |
| 2026-05-04 14:31 | 41.98878 | 164.33106 | 35073 ft | 575 kts | 69° |
| 2026-05-04 14:32 | 42.02776 | 164.52101 | 35080 ft | 575 kts | 69° |
| 2026-05-04 14:32 | 42.04890 | 164.62470 | 35080 ft | 575 kts | 69° |
| 2026-05-04 14:33 | 42.06997 | 164.72863 | 35100 ft | 575 kts | 69° |
| 2026-05-04 14:33 | 42.09079 | 164.83187 | 35083 ft | 574 kts | 69° |
| 2026-05-04 14:34 | 42.11165 | 164.93579 | 35086 ft | 574 kts | 69° |
| 2026-05-04 14:34 | 42.13241 | 165.03977 | 35086 ft | 574 kts | 69° |
| 2026-05-04 14:35 | 42.15304 | 165.14365 | 35092 ft | 574 kts | 69° |
| 2026-05-04 14:35 | 42.17359 | 165.24764 | 35091 ft | 574 kts | 69° |
| 2026-05-04 14:36 | 42.19404 | 165.35166 | 35088 ft | 574 kts | 69° |
| 2026-05-04 14:36 | 42.21441 | 165.45582 | 35089 ft | 574 kts | 69° |
| 2026-05-04 14:37 | 42.23453 | 165.55927 | 35091 ft | 574 kts | 69° |
| 2026-05-04 14:37 | 42.25473 | 165.66367 | 35094 ft | 574 kts | 69° |
| 2026-05-04 14:38 | 42.27480 | 165.76796 | 35089 ft | 574 kts | 69° |
| 2026-05-04 14:38 | 42.29480 | 165.87245 | 35096 ft | 573 kts | 69° |
| 2026-05-04 14:39 | 42.31467 | 165.97685 | 35096 ft | 573 kts | 69° |
| 2026-05-04 14:39 | 42.33446 | 166.08129 | 35097 ft | 573 kts | 69° |
| 2026-05-04 14:40 | 42.36380 | 166.23731 | 35107 ft | 572 kts | 69° |
| 2026-05-04 14:40 | 42.38331 | 166.34179 | 35096 ft | 572 kts | 69° |
| 2026-05-04 14:41 | 42.40273 | 166.44624 | 35095 ft | 572 kts | 69° |
| 2026-05-04 14:42 | 42.44113 | 166.65468 | 35099 ft | 572 kts | 69° |
| 2026-05-04 14:42 | 42.46024 | 166.75925 | 35103 ft | 572 kts | 69° |
| 2026-05-04 14:43 | 42.47928 | 166.86399 | 35099 ft | 572 kts | 69° |
| 2026-05-04 14:43 | 42.49822 | 166.96882 | 35106 ft | 573 kts | 69° |
| 2026-05-04 14:44 | 42.51708 | 167.07379 | 35103 ft | 573 kts | 69° |
| 2026-05-04 14:44 | 42.53583 | 167.17877 | 35108 ft | 573 kts | 69° |
| 2026-05-04 14:45 | 42.55441 | 167.28339 | 35112 ft | 573 kts | 69° |
| 2026-05-04 14:45 | 42.57310 | 167.38920 | 35107 ft | 573 kts | 69° |
| 2026-05-04 14:46 | 42.59146 | 167.49372 | 35105 ft | 573 kts | 69° |
| 2026-05-04 14:46 | 42.60984 | 167.59904 | 35132 ft | 573 kts | 69° |
| 2026-05-04 14:47 | 42.62815 | 167.70459 | 35113 ft | 574 kts | 69° |
| 2026-05-04 14:47 | 42.64640 | 167.81030 | 35113 ft | 574 kts | 69° |
| 2026-05-04 14:48 | 42.66452 | 167.91596 | 35111 ft | 574 kts | 69° |
| 2026-05-04 14:48 | 42.68332 | 168.02618 | 35117 ft | 575 kts | 69° |
| 2026-05-04 14:49 | 42.70130 | 168.13230 | 35108 ft | 576 kts | 69° |
| 2026-05-04 14:49 | 42.71909 | 168.23791 | 35106 ft | 576 kts | 69° |
| 2026-05-04 14:50 | 42.73686 | 168.34416 | 35115 ft | 576 kts | 69° |
| 2026-05-04 14:50 | 42.75454 | 168.45048 | 35104 ft | 576 kts | 69° |
| 2026-05-04 14:51 | 42.77212 | 168.55678 | 35107 ft | 576 kts | 69° |
| 2026-05-04 14:51 | 42.78963 | 168.66328 | 35106 ft | 576 kts | 69° |
| 2026-05-04 14:52 | 42.80702 | 168.76979 | 35102 ft | 575 kts | 69° |
| 2026-05-04 14:52 | 42.82427 | 168.87611 | 35103 ft | 575 kts | 69° |
| 2026-05-04 14:53 | 42.84133 | 168.98184 | 35101 ft | 575 kts | 69° |
| 2026-05-04 14:53 | 42.85839 | 169.08827 | 35102 ft | 575 kts | 69° |
| 2026-05-04 14:54 | 42.87539 | 169.19497 | 35103 ft | 575 kts | 69° |
| 2026-05-04 14:54 | 42.89227 | 169.30167 | 35101 ft | 575 kts | 69° |
| 2026-05-04 14:55 | 42.90905 | 169.40835 | 35099 ft | 575 kts | 70° |
| 2026-05-04 14:55 | 42.92558 | 169.51435 | 35099 ft | 573 kts | 69° |
| 2026-05-04 14:56 | 42.94207 | 169.62061 | 35097 ft | 572 kts | 69° |
| 2026-05-04 14:56 | 42.95852 | 169.72715 | 35093 ft | 572 kts | 69° |
| 2026-05-04 14:57 | 42.97482 | 169.83352 | 35114 ft | 572 kts | 69° |
| 2026-05-04 14:57 | 42.99098 | 169.93975 | 35086 ft | 570 kts | 69° |
| 2026-05-04 14:58 | 43.00700 | 170.04602 | 35085 ft | 571 kts | 69° |
| 2026-05-04 14:58 | 43.01988 | 170.13460 | 35087 ft | 572 kts | 70° |
| 2026-05-04 14:59 | 43.03767 | 170.25939 | 35083 ft | 571 kts | 69° |
| 2026-05-04 15:00 | 43.06039 | 170.41923 | 35079 ft | 571 kts | 69° |
| 2026-05-04 15:00 | 43.07539 | 170.52519 | 35081 ft | 571 kts | 69° |
| 2026-05-04 15:01 | 43.09781 | 170.68522 | 35075 ft | 570 kts | 69° |
| 2026-05-04 15:01 | 43.11263 | 170.79189 | 35070 ft | 570 kts | 69° |
| 2026-05-04 15:02 | 43.12739 | 170.89884 | 35070 ft | 570 kts | 69° |
| 2026-05-04 15:02 | 43.14190 | 171.00482 | 35065 ft | 569 kts | 68° |
| 2026-05-04 15:03 | 43.15639 | 171.11148 | 35063 ft | 569 kts | 68° |
| 2026-05-04 15:03 | 43.17081 | 171.21835 | 35061 ft | 569 kts | 69° |
| 2026-05-04 15:04 | 43.18510 | 171.32503 | 35072 ft | 569 kts | 69° |
| 2026-05-04 15:04 | 43.19917 | 171.43098 | 35057 ft | 567 kts | 69° |
| 2026-05-04 15:05 | 43.21325 | 171.53757 | 35051 ft | 567 kts | 69° |
| 2026-05-04 15:05 | 43.22487 | 171.62619 | 35050 ft | 568 kts | 69° |
| 2026-05-04 15:06 | 43.23877 | 171.73292 | 35050 ft | 568 kts | 69° |
| 2026-05-04 15:07 | 43.25938 | 171.89280 | 35045 ft | 568 kts | 69° |
| 2026-05-04 15:07 | 43.27303 | 171.99974 | 35043 ft | 568 kts | 69° |
| 2026-05-04 15:08 | 43.28648 | 172.10587 | 35042 ft | 568 kts | 69° |
| 2026-05-04 15:08 | 43.29994 | 172.21289 | 35040 ft | 568 kts | 69° |
| 2026-05-04 15:09 | 43.31330 | 172.32007 | 35037 ft | 568 kts | 69° |
| 2026-05-04 15:09 | 43.32654 | 172.42705 | 35067 ft | 569 kts | 69° |
| 2026-05-04 15:10 | 43.34620 | 172.58743 | 35043 ft | 570 kts | 69° |
| 2026-05-04 15:11 | 43.36569 | 172.74858 | 35019 ft | 570 kts | 70° |
| 2026-05-04 15:11 | 43.37862 | 172.85648 | 35033 ft | 570 kts | 70° |
| 2026-05-04 15:12 | 43.39141 | 172.96421 | 35026 ft | 570 kts | 70° |
| 2026-05-04 15:12 | 43.40401 | 173.07117 | 35010 ft | 570 kts | 70° |
| 2026-05-04 15:13 | 43.41660 | 173.17890 | 35031 ft | 571 kts | 70° |
| 2026-05-04 15:13 | 43.42915 | 173.28712 | 35008 ft | 572 kts | 70° |
| 2026-05-04 15:14 | 43.44158 | 173.39537 | 35033 ft | 572 kts | 70° |
| 2026-05-04 15:14 | 43.45388 | 173.50329 | 34998 ft | 574 kts | 70° |
| 2026-05-04 15:15 | 43.46616 | 173.61204 | 34990 ft | 576 kts | 70° |
| 2026-05-04 15:15 | 43.47834 | 173.72099 | 34990 ft | 577 kts | 70° |
| 2026-05-04 15:16 | 43.49646 | 173.88500 | 34985 ft | 577 kts | 70° |
| 2026-05-04 15:17 | 43.51437 | 174.04907 | 34975 ft | 578 kts | 70° |
| 2026-05-04 15:17 | 43.53199 | 174.21271 | 34961 ft | 578 kts | 70° |
| 2026-05-04 15:18 | 43.54363 | 174.32219 | 34981 ft | 578 kts | 70° |
| 2026-05-04 15:19 | 43.56096 | 174.48694 | 34948 ft | 578 kts | 70° |
| 2026-05-04 15:19 | 43.57804 | 174.65174 | 34944 ft | 579 kts | 70° |
| 2026-05-04 15:20 | 43.58930 | 174.76174 | 34938 ft | 579 kts | 70° |
| 2026-05-04 15:20 | 43.60046 | 174.87181 | 34933 ft | 579 kts | 70° |
| 2026-05-04 15:21 | 43.61145 | 174.98124 | 34925 ft | 579 kts | 70° |
| 2026-05-04 15:22 | 43.62787 | 175.14676 | 34921 ft | 580 kts | 70° |
| 2026-05-04 15:22 | 43.64405 | 175.31246 | 34914 ft | 580 kts | 70° |
| 2026-05-04 15:23 | 43.65471 | 175.42299 | 34914 ft | 580 kts | 71° |
| 2026-05-04 15:23 | 43.66522 | 175.53305 | 34906 ft | 582 kts | 71° |
| 2026-05-04 15:24 | 43.68608 | 175.75516 | 34894 ft | 583 kts | 71° |
| 2026-05-04 15:25 | 43.69636 | 175.86640 | 34898 ft | 584 kts | 71° |
| 2026-05-04 15:26 | 43.71168 | 176.03411 | 34886 ft | 586 kts | 71° |
| 2026-05-04 15:26 | 43.72666 | 176.20144 | 34935 ft | 587 kts | 71° |
| 2026-05-04 15:27 | 43.74158 | 176.37024 | 34872 ft | 591 kts | 71° |
| 2026-05-04 15:28 | 43.75624 | 176.53977 | 34867 ft | 592 kts | 71° |
| 2026-05-04 15:29 | 43.77066 | 176.70936 | 34868 ft | 592 kts | 71° |
| 2026-05-04 15:30 | 43.80400 | 177.11280 | 34845 ft | 594 kts | 72° |
| 2026-05-04 15:31 | 43.81760 | 177.28302 | 34840 ft | 594 kts | 72° |
| 2026-05-04 15:32 | 43.83830 | 177.54840 | 34836 ft | 594 kts | 72° |
| 2026-05-04 15:34 | 43.85984 | 177.83338 | 34828 ft | 593 kts | 73° |
| 2026-05-04 15:34 | 43.87236 | 178.00368 | 34831 ft | 592 kts | 73° |
| 2026-05-04 15:35 | 43.88462 | 178.17338 | 34821 ft | 591 kts | 75° |
| 2026-05-04 15:36 | 43.89658 | 178.34331 | 34819 ft | 590 kts | 75° |
| 2026-05-04 15:36 | 43.90442 | 178.45647 | 34812 ft | 590 kts | 75° |
| 2026-05-04 15:37 | 43.91219 | 178.57003 | 34812 ft | 589 kts | 76° |
| 2026-05-04 15:37 | 43.91975 | 178.68232 | 34807 ft | 588 kts | 76° |
| 2026-05-04 15:38 | 43.92725 | 178.79540 | 34807 ft | 588 kts | 76° |
| 2026-05-04 15:38 | 43.93464 | 178.90834 | 34814 ft | 588 kts | 77° |
| 2026-05-04 15:39 | 43.94191 | 179.02155 | 34807 ft | 588 kts | 77° |
| 2026-05-04 15:40 | 43.95259 | 179.19103 | 34801 ft | 588 kts | 77° |
| 2026-05-04 15:40 | 43.95954 | 179.30350 | 34801 ft | 587 kts | 78° |
| 2026-05-04 15:41 | 43.96639 | 179.41636 | 34795 ft | 587 kts | 78° |
| 2026-05-04 15:41 | 43.97315 | 179.52932 | 34795 ft | 586 kts | 78° |
| 2026-05-04 15:42 | 43.97980 | 179.64223 | 34824 ft | 586 kts | 78° |
| 2026-05-04 15:42 | 43.98628 | 179.75477 | 34791 ft | 583 kts | 79° |
| 2026-05-04 15:43 | 43.99265 | 179.86687 | 34788 ft | 582 kts | 79° |
| 2026-05-04 15:43 | 43.99913 | 179.97900 | 34784 ft | 580 kts | 76° |
| 2026-05-04 15:44 | 44.01277 | -179.91163 | 34789 ft | 573 kts | 72° |
| 2026-05-04 15:44 | 44.02831 | -179.80297 | 34787 ft | 572 kts | 71° |
| 2026-05-04 15:45 | 44.04397 | -179.69524 | 35242 ft | 563 kts | 72° |
| 2026-05-04 15:45 | 44.05160 | -179.64214 | 35735 ft | 558 kts | 72° |
| 2026-05-04 15:45 | 44.05905 | -179.58999 | 36103 ft | 555 kts | 72° |
| 2026-05-04 15:45 | 44.06655 | -179.53734 | 36402 ft | 554 kts | 72° |
| 2026-05-04 15:46 | 44.07399 | -179.48488 | 36660 ft | 553 kts | 72° |
| 2026-05-04 15:46 | 44.08145 | -179.43209 | 36772 ft | 556 kts | 72° |
| 2026-05-04 15:46 | 44.08894 | -179.37907 | 36776 ft | 560 kts | 72° |
| 2026-05-04 15:47 | 44.10382 | -179.27263 | 36774 ft | 560 kts | 72° |
| 2026-05-04 15:47 | 44.11854 | -179.16628 | 36780 ft | 559 kts | 73° |
| 2026-05-04 15:48 | 44.13307 | -179.06055 | 36774 ft | 559 kts | 73° |
| 2026-05-04 15:48 | 44.15485 | -178.90083 | 36774 ft | 560 kts | 73° |
| 2026-05-04 15:49 | 44.16925 | -178.79434 | 36776 ft | 559 kts | 73° |
| 2026-05-04 15:49 | 44.18353 | -178.68782 | 36766 ft | 559 kts | 73° |
| 2026-05-04 15:50 | 44.19772 | -178.58125 | 36770 ft | 559 kts | 73° |
| 2026-05-04 15:50 | 44.21174 | -178.47525 | 36770 ft | 559 kts | 74° |
| 2026-05-04 15:51 | 44.22571 | -178.36873 | 36765 ft | 557 kts | 75° |
| 2026-05-04 15:51 | 44.23952 | -178.26254 | 36763 ft | 556 kts | 75° |
| 2026-05-04 15:52 | 44.25323 | -178.15643 | 36763 ft | 556 kts | 75° |
| 2026-05-04 15:52 | 44.26685 | -178.05025 | 36774 ft | 555 kts | 75° |
| 2026-05-04 15:53 | 44.28035 | -177.94413 | 36763 ft | 555 kts | 75° |
| 2026-05-04 15:53 | 44.29373 | -177.83816 | 36760 ft | 554 kts | 75° |
| 2026-05-04 15:54 | 44.30695 | -177.73266 | 36760 ft | 554 kts | 75° |
| 2026-05-04 15:54 | 44.32015 | -177.62648 | 36760 ft | 554 kts | 76° |
| 2026-05-04 15:55 | 44.33321 | -177.52048 | 36760 ft | 554 kts | 76° |
| 2026-05-04 15:55 | 44.34618 | -177.41444 | 36760 ft | 554 kts | 76° |
| 2026-05-04 15:56 | 44.35899 | -177.30890 | 36769 ft | 554 kts | 76° |
| 2026-05-04 15:56 | 44.37174 | -177.20298 | 36755 ft | 552 kts | 76° |
| 2026-05-04 15:57 | 44.38440 | -177.09692 | 36767 ft | 552 kts | 76° |
| 2026-05-04 15:57 | 44.39692 | -176.99126 | 36761 ft | 550 kts | 77° |
| 2026-05-04 15:58 | 44.40931 | -176.88569 | 36749 ft | 549 kts | 77° |
| 2026-05-04 15:58 | 44.42158 | -176.78030 | 36751 ft | 548 kts | 77° |
| 2026-05-04 15:59 | 44.43368 | -176.67558 | 36751 ft | 548 kts | 77° |
| 2026-05-04 15:59 | 44.44576 | -176.57020 | 36745 ft | 548 kts | 77° |
| 2026-05-04 16:00 | 44.45773 | -176.46482 | 36748 ft | 547 kts | 78° |
| 2026-05-04 16:00 | 44.46959 | -176.35948 | 36744 ft | 547 kts | 78° |
| 2026-05-04 16:01 | 44.48076 | -176.25941 | 36746 ft | 547 kts | 78° |
| 2026-05-04 16:01 | 44.49244 | -176.15400 | 36746 ft | 547 kts | 78° |
| 2026-05-04 16:02 | 44.50398 | -176.04889 | 36740 ft | 546 kts | 78° |
| 2026-05-04 16:03 | 44.52105 | -175.89158 | 36748 ft | 546 kts | 78° |
| 2026-05-04 16:03 | 44.53234 | -175.78645 | 36745 ft | 546 kts | 78° |
| 2026-05-04 16:04 | 44.54355 | -175.68110 | 36740 ft | 545 kts | 79° |
| 2026-05-04 16:04 | 44.56006 | -175.52422 | 36742 ft | 544 kts | 79° |
| 2026-05-04 16:05 | 44.57100 | -175.41905 | 36747 ft | 544 kts | 79° |
| 2026-05-04 16:06 | 44.58717 | -175.26182 | 36740 ft | 543 kts | 79° |
| 2026-05-04 16:07 | 44.60838 | -175.05215 | 36739 ft | 543 kts | 79° |
| 2026-05-04 16:08 | 44.62914 | -174.84308 | 36741 ft | 542 kts | 80° |
| 2026-05-04 16:09 | 44.65460 | -174.58094 | 36744 ft | 541 kts | 81° |
| 2026-05-04 16:10 | 44.67447 | -174.37184 | 36755 ft | 541 kts | 81° |
| 2026-05-04 16:11 | 44.69394 | -174.16266 | 36750 ft | 538 kts | 81° |
| 2026-05-04 16:12 | 44.72237 | -173.84954 | 36754 ft | 538 kts | 82° |
| 2026-05-04 16:13 | 44.74081 | -173.64091 | 36755 ft | 537 kts | 82° |
| 2026-05-04 16:14 | 44.75882 | -173.43282 | 36755 ft | 537 kts | 82° |
| 2026-05-04 16:16 | 44.78086 | -173.17171 | 36757 ft | 537 kts | 83° |
| 2026-05-04 16:17 | 44.80220 | -172.91180 | 36756 ft | 534 kts | 83° |
| 2026-05-04 16:18 | 44.81883 | -172.70395 | 36762 ft | 533 kts | 83° |
| 2026-05-04 16:19 | 44.83900 | -172.44506 | 36761 ft | 533 kts | 83° |
| 2026-05-04 16:20 | 44.85731 | -172.20311 | 36762 ft | 532 kts | 84° |
| 2026-05-04 16:22 | 44.87640 | -171.94312 | 36763 ft | 533 kts | 84° |
| 2026-05-04 16:23 | 44.89848 | -171.63178 | 36760 ft | 532 kts | 84° |
| 2026-05-04 16:25 | 44.91965 | -171.32092 | 36756 ft | 530 kts | 84° |
| 2026-05-04 16:26 | 44.94325 | -170.95865 | 36751 ft | 530 kts | 85° |
| 2026-05-04 16:28 | 44.95940 | -170.69988 | 36747 ft | 528 kts | 85° |
| 2026-05-04 16:29 | 44.98099 | -170.33783 | 36755 ft | 528 kts | 86° |
| 2026-05-04 16:31 | 44.99569 | -170.07951 | 36758 ft | 529 kts | 86° |
| 2026-05-04 16:32 | 45.01015 | -169.76867 | 36765 ft | 528 kts | 88° |
| 2026-05-04 16:33 | 45.01837 | -169.56219 | 36774 ft | 527 kts | 88° |
| 2026-05-04 16:34 | 45.02448 | -169.40687 | 36785 ft | 527 kts | 88° |
| 2026-05-04 16:35 | 45.03603 | -169.09608 | 36792 ft | 528 kts | 88° |
| 2026-05-04 16:36 | 45.04150 | -168.94037 | 36794 ft | 528 kts | 88° |
| 2026-05-04 16:37 | 45.04673 | -168.78547 | 36805 ft | 528 kts | 88° |
| 2026-05-04 16:38 | 45.05340 | -168.57813 | 36836 ft | 527 kts | 88° |
| 2026-05-04 16:39 | 45.06121 | -168.31906 | 36855 ft | 527 kts | 88° |
| 2026-05-04 16:40 | 45.06701 | -168.11242 | 36864 ft | 527 kts | 89° |
| 2026-05-04 16:41 | 45.07376 | -167.85331 | 36869 ft | 527 kts | 89° |
| 2026-05-04 16:43 | 45.07991 | -167.59466 | 36890 ft | 526 kts | 89° |
| 2026-05-04 16:43 | 45.08332 | -167.43981 | 36905 ft | 524 kts | 89° |
| 2026-05-04 16:45 | 45.08946 | -167.13218 | 36924 ft | 519 kts | 89° |
| 2026-05-04 16:46 | 45.09393 | -166.87686 | 36931 ft | 519 kts | 90° |
| 2026-05-04 16:47 | 45.09708 | -166.67320 | 36940 ft | 519 kts | 90° |
| 2026-05-04 16:48 | 45.09989 | -166.46873 | 36946 ft | 519 kts | 90° |
| 2026-05-04 16:49 | 45.10232 | -166.26427 | 36955 ft | 519 kts | 90° |
| 2026-05-04 16:50 | 45.10439 | -166.06050 | 36959 ft | 519 kts | 90° |
| 2026-05-04 16:51 | 45.10571 | -165.90725 | 36969 ft | 518 kts | 91° |
| 2026-05-04 16:52 | 45.10714 | -165.70287 | 36982 ft | 518 kts | 91° |
| 2026-05-04 16:53 | 45.10797 | -165.55037 | 36989 ft | 518 kts | 91° |
| 2026-05-04 16:54 | 45.10877 | -165.34634 | 36993 ft | 518 kts | 91° |
| 2026-05-04 16:55 | 45.10929 | -165.04105 | 37001 ft | 518 kts | 91° |
| 2026-05-04 16:56 | 45.10909 | -164.78605 | 37017 ft | 518 kts | 91° |
| 2026-05-04 16:57 | 45.10871 | -164.63294 | 37011 ft | 518 kts | 91° |
| 2026-05-04 16:58 | 45.10788 | -164.42900 | 37015 ft | 517 kts | 91° |
| 2026-05-04 17:00 | 45.10595 | -164.12417 | 37026 ft | 517 kts | 92° |
| 2026-05-04 17:01 | 45.10372 | -163.86953 | 37030 ft | 517 kts | 92° |
| 2026-05-04 17:02 | 45.10153 | -163.66595 | 37025 ft | 517 kts | 92° |
| 2026-05-04 17:03 | 45.09966 | -163.51394 | 37035 ft | 517 kts | 92° |
| 2026-05-04 17:03 | 45.09757 | -163.36121 | 37039 ft | 517 kts | 92° |
| 2026-05-04 17:04 | 45.09448 | -163.15795 | 37040 ft | 517 kts | 92° |
| 2026-05-04 17:05 | 45.09102 | -162.95425 | 37045 ft | 517 kts | 92° |
| 2026-05-04 17:06 | 45.08819 | -162.80143 | 37045 ft | 517 kts | 92° |
| 2026-05-04 17:07 | 45.08586 | -162.68292 | 37046 ft | 518 kts | 93° |
| 2026-05-04 17:07 | 45.08304 | -162.54741 | 37053 ft | 517 kts | 93° |
| 2026-05-04 17:08 | 45.08005 | -162.41172 | 37053 ft | 518 kts | 93° |
| 2026-05-04 17:09 | 45.07769 | -162.30963 | 37055 ft | 518 kts | 93° |
| 2026-05-04 17:09 | 45.07526 | -162.20777 | 37056 ft | 518 kts | 93° |
| 2026-05-04 17:10 | 45.06878 | -161.95363 | 37059 ft | 518 kts | 93° |
| 2026-05-04 17:11 | 45.06601 | -161.85157 | 37060 ft | 518 kts | 93° |
| 2026-05-04 17:12 | 45.06172 | -161.69930 | 37060 ft | 518 kts | 94° |
| 2026-05-04 17:13 | 45.05408 | -161.44427 | 37066 ft | 518 kts | 94° |
| 2026-05-04 17:14 | 45.04757 | -161.24036 | 37062 ft | 519 kts | 94° |
| 2026-05-04 17:15 | 45.04246 | -161.08793 | 37068 ft | 519 kts | 94° |
| 2026-05-04 17:16 | 45.03530 | -160.88398 | 37057 ft | 519 kts | 94° |
| 2026-05-04 17:17 | 45.02777 | -160.67973 | 37074 ft | 520 kts | 94° |
| 2026-05-04 17:18 | 45.01991 | -160.47631 | 37061 ft | 520 kts | 95° |
| 2026-05-04 17:19 | 45.01164 | -160.27198 | 37069 ft | 521 kts | 95° |
| 2026-05-04 17:20 | 45.00303 | -160.06820 | 37081 ft | 520 kts | 95° |
| 2026-05-04 17:20 | 45.00582 | -159.96601 | 37079 ft | 522 kts | 81° |
| 2026-05-04 17:20 | 45.01206 | -159.91555 | 37076 ft | 522 kts | 80° |
| 2026-05-04 17:21 | 45.04115 | -159.71469 | 37073 ft | 523 kts | 79° |
| 2026-05-04 17:22 | 45.05576 | -159.61397 | 37073 ft | 523 kts | 79° |
| 2026-05-04 17:23 | 45.08434 | -159.41214 | 37081 ft | 523 kts | 79° |
| 2026-05-04 17:24 | 45.10545 | -159.26105 | 37082 ft | 524 kts | 79° |
| 2026-05-04 17:25 | 45.13345 | -159.05831 | 37076 ft | 524 kts | 79° |
| 2026-05-04 17:26 | 45.16108 | -158.85545 | 37082 ft | 524 kts | 79° |
| 2026-05-04 17:27 | 45.19508 | -158.60191 | 37076 ft | 525 kts | 80° |
| 2026-05-04 17:28 | 45.22196 | -158.39818 | 37072 ft | 525 kts | 80° |
| 2026-05-04 17:29 | 45.26161 | -158.09212 | 37089 ft | 526 kts | 81° |
| 2026-05-04 17:31 | 45.29406 | -157.83653 | 37056 ft | 527 kts | 81° |
| 2026-05-04 17:32 | 45.32601 | -157.58004 | 37071 ft | 527 kts | 81° |
| 2026-05-04 17:33 | 45.35112 | -157.37497 | 37063 ft | 528 kts | 81° |
| 2026-05-04 17:34 | 45.37595 | -157.16898 | 37080 ft | 528 kts | 81° |
| 2026-05-04 17:35 | 45.40640 | -156.91173 | 37072 ft | 528 kts | 81° |
| 2026-05-04 17:36 | 45.41849 | -156.80823 | 37075 ft | 529 kts | 82° |
| 2026-05-04 17:36 | 45.43046 | -156.70478 | 37073 ft | 529 kts | 82° |
| 2026-05-04 17:37 | 45.44227 | -156.60193 | 37077 ft | 529 kts | 82° |
| 2026-05-04 17:37 | 45.45407 | -156.49831 | 37078 ft | 529 kts | 82° |
| 2026-05-04 17:38 | 45.46577 | -156.39473 | 37066 ft | 529 kts | 82° |
| 2026-05-04 17:38 | 45.47739 | -156.29100 | 37071 ft | 529 kts | 82° |
| 2026-05-04 17:39 | 45.49455 | -156.13607 | 37072 ft | 529 kts | 82° |
| 2026-05-04 17:39 | 45.50593 | -156.03223 | 37076 ft | 530 kts | 82° |
| 2026-05-04 17:40 | 45.51722 | -155.92838 | 37055 ft | 529 kts | 83° |
| 2026-05-04 17:40 | 45.52842 | -155.82441 | 37063 ft | 529 kts | 83° |
| 2026-05-04 17:41 | 45.53950 | -155.72064 | 37064 ft | 529 kts | 83° |
| 2026-05-04 17:41 | 45.55043 | -155.61728 | 37062 ft | 529 kts | 83° |
| 2026-05-04 17:42 | 45.56134 | -155.51326 | 37065 ft | 530 kts | 83° |
| 2026-05-04 17:42 | 45.57215 | -155.40926 | 37065 ft | 530 kts | 83° |
| 2026-05-04 17:43 | 45.58288 | -155.30502 | 37059 ft | 530 kts | 83° |
| 2026-05-04 17:43 | 45.59345 | -155.20147 | 37065 ft | 530 kts | 83° |
| 2026-05-04 17:44 | 45.60399 | -155.09722 | 37067 ft | 530 kts | 83° |
| 2026-05-04 17:44 | 45.61443 | -154.99301 | 37046 ft | 530 kts | 83° |
| 2026-05-04 17:45 | 45.62477 | -154.88872 | 37062 ft | 530 kts | 84° |
| 2026-05-04 17:45 | 45.63502 | -154.78441 | 37057 ft | 530 kts | 84° |
| 2026-05-04 17:46 | 45.64512 | -154.68061 | 37058 ft | 530 kts | 84° |
| 2026-05-04 17:46 | 45.65517 | -154.57628 | 37060 ft | 530 kts | 84° |
| 2026-05-04 17:47 | 45.66514 | -154.47183 | 37050 ft | 530 kts | 84° |
| 2026-05-04 17:47 | 45.67495 | -154.36801 | 37060 ft | 529 kts | 84° |
| 2026-05-04 17:48 | 45.68472 | -154.26353 | 37060 ft | 529 kts | 84° |
| 2026-05-04 17:48 | 45.69438 | -154.15915 | 37056 ft | 530 kts | 84° |
| 2026-05-04 17:49 | 45.70396 | -154.05464 | 37039 ft | 529 kts | 85° |
| 2026-05-04 17:49 | 45.71344 | -153.95021 | 37055 ft | 529 kts | 85° |
| 2026-05-04 17:50 | 45.72283 | -153.84561 | 37059 ft | 529 kts | 85° |
| 2026-05-04 17:50 | 45.73206 | -153.74166 | 37056 ft | 529 kts | 85° |
| 2026-05-04 17:51 | 45.74125 | -153.63707 | 37062 ft | 529 kts | 85° |
| 2026-05-04 17:51 | 45.75035 | -153.53246 | 37058 ft | 529 kts | 86° |
| 2026-05-04 17:52 | 45.75933 | -153.42796 | 37059 ft | 529 kts | 86° |
| 2026-05-04 17:52 | 45.76673 | -153.34101 | 37057 ft | 529 kts | 86° |
| 2026-05-04 17:53 | 45.77702 | -153.21886 | 37062 ft | 529 kts | 86° |
| 2026-05-04 17:53 | 45.78567 | -153.11483 | 37062 ft | 529 kts | 86° |
| 2026-05-04 17:54 | 45.79428 | -153.01017 | 37062 ft | 528 kts | 86° |
| 2026-05-04 17:54 | 45.80142 | -152.92257 | 37058 ft | 528 kts | 86° |
| 2026-05-04 17:55 | 45.80978 | -152.81876 | 37062 ft | 528 kts | 87° |
| 2026-05-04 17:55 | 45.81810 | -152.71412 | 37066 ft | 528 kts | 87° |
| 2026-05-04 17:56 | 45.82634 | -152.60947 | 37044 ft | 527 kts | 87° |
| 2026-05-04 17:56 | 45.83446 | -152.50498 | 37070 ft | 527 kts | 87° |
| 2026-05-04 17:57 | 45.84248 | -152.40052 | 37064 ft | 527 kts | 87° |
| 2026-05-04 17:57 | 45.85041 | -152.29607 | 37072 ft | 527 kts | 88° |
| 2026-05-04 17:58 | 45.85824 | -152.19148 | 37067 ft | 527 kts | 88° |
| 2026-05-04 17:58 | 45.86593 | -152.08765 | 37069 ft | 526 kts | 88° |
| 2026-05-04 17:59 | 45.87356 | -151.98320 | 37072 ft | 526 kts | 88° |
| 2026-05-04 18:00 | 45.88483 | -151.82646 | 37072 ft | 525 kts | 88° |
| 2026-05-04 18:00 | 45.89222 | -151.72212 | 37080 ft | 525 kts | 88° |
| 2026-05-04 18:01 | 45.89947 | -151.61829 | 37069 ft | 525 kts | 89° |
| 2026-05-04 18:01 | 45.90666 | -151.51401 | 37075 ft | 524 kts | 89° |
| 2026-05-04 18:02 | 45.91723 | -151.35776 | 37080 ft | 524 kts | 89° |
| 2026-05-04 18:02 | 45.92417 | -151.25355 | 37080 ft | 524 kts | 89° |
| 2026-05-04 18:03 | 45.93102 | -151.14925 | 37059 ft | 523 kts | 90° |
| 2026-05-04 18:03 | 45.93774 | -151.04559 | 37081 ft | 523 kts | 90° |
| 2026-05-04 18:04 | 45.94438 | -150.94166 | 37081 ft | 522 kts | 90° |
| 2026-05-04 18:05 | 45.95413 | -150.78588 | 37082 ft | 522 kts | 90° |
| 2026-05-04 18:05 | 45.96053 | -150.68186 | 37081 ft | 522 kts | 90° |
| 2026-05-04 18:06 | 45.96989 | -150.52666 | 37085 ft | 521 kts | 90° |
| 2026-05-04 18:06 | 45.97605 | -150.42268 | 37086 ft | 521 kts | 91° |
| 2026-05-04 18:07 | 45.98211 | -150.31878 | 37089 ft | 521 kts | 91° |
| 2026-05-04 18:07 | 45.98808 | -150.21476 | 37090 ft | 521 kts | 91° |
| 2026-05-04 18:08 | 45.99391 | -150.11165 | 37090 ft | 519 kts | 91° |
| 2026-05-04 18:08 | 45.99883 | -150.00823 | 37094 ft | 514 kts | 96° |
| 2026-05-04 18:09 | 45.98947 | -149.80439 | 37107 ft | 509 kts | 101° |
| 2026-05-04 18:10 | 45.98345 | -149.70283 | 37094 ft | 509 kts | 102° |
| 2026-05-04 18:10 | 45.97745 | -149.60142 | 37105 ft | 508 kts | 102° |
| 2026-05-04 18:11 | 45.97150 | -149.50097 | 37109 ft | 507 kts | 102° |
| 2026-05-04 18:11 | 45.96546 | -149.39990 | 37109 ft | 507 kts | 102° |
| 2026-05-04 18:12 | 45.95932 | -149.29881 | 37100 ft | 506 kts | 102° |
| 2026-05-04 18:12 | 45.95311 | -149.19801 | 37109 ft | 505 kts | 102° |
| 2026-05-04 18:13 | 45.94686 | -149.09816 | 37119 ft | 505 kts | 102° |
| 2026-05-04 18:14 | 45.93725 | -148.94744 | 37123 ft | 504 kts | 102° |
| 2026-05-04 18:14 | 45.93075 | -148.84701 | 37109 ft | 504 kts | 102° |
| 2026-05-04 18:15 | 45.91754 | -148.64716 | 37127 ft | 503 kts | 103° |
| 2026-05-04 18:16 | 45.91078 | -148.54695 | 37129 ft | 503 kts | 103° |
| 2026-05-04 18:16 | 45.90394 | -148.44686 | 37112 ft | 502 kts | 103° |
| 2026-05-04 18:17 | 45.89359 | -148.29778 | 37137 ft | 502 kts | 103° |
| 2026-05-04 18:18 | 45.88300 | -148.14825 | 37141 ft | 501 kts | 103° |
| 2026-05-04 18:18 | 45.87584 | -148.04862 | 37143 ft | 501 kts | 103° |
| 2026-05-04 18:19 | 45.86495 | -147.89943 | 37152 ft | 500 kts | 104° |
| 2026-05-04 18:19 | 45.85759 | -147.80015 | 37152 ft | 500 kts | 104° |
| 2026-05-04 18:20 | 45.85020 | -147.70156 | 37158 ft | 500 kts | 104° |
| 2026-05-04 18:20 | 45.84267 | -147.60230 | 37119 ft | 499 kts | 104° |
| 2026-05-04 18:21 | 45.83508 | -147.50326 | 37156 ft | 498 kts | 104° |
| 2026-05-04 18:21 | 45.82740 | -147.40440 | 37156 ft | 498 kts | 104° |
| 2026-05-04 18:22 | 45.81964 | -147.30575 | 37159 ft | 498 kts | 104° |
| 2026-05-04 18:22 | 45.81181 | -147.20709 | 37162 ft | 498 kts | 104° |
| 2026-05-04 18:23 | 45.80393 | -147.10896 | 37170 ft | 497 kts | 105° |
| 2026-05-04 18:23 | 45.79594 | -147.01045 | 37164 ft | 497 kts | 105° |
| 2026-05-04 18:24 | 45.78786 | -146.91204 | 37171 ft | 497 kts | 105° |
| 2026-05-04 18:24 | 45.77970 | -146.81365 | 37171 ft | 497 kts | 105° |
| 2026-05-04 18:25 | 45.77148 | -146.71545 | 37168 ft | 496 kts | 105° |
| 2026-05-04 18:25 | 45.76319 | -146.61746 | 37167 ft | 495 kts | 105° |
| 2026-05-04 18:26 | 45.75485 | -146.52012 | 37173 ft | 495 kts | 105° |
| 2026-05-04 18:26 | 45.74638 | -146.42220 | 37177 ft | 495 kts | 105° |
| 2026-05-04 18:27 | 45.73782 | -146.32429 | 37182 ft | 495 kts | 105° |
| 2026-05-04 18:27 | 45.72919 | -146.22639 | 37183 ft | 495 kts | 106° |
| 2026-05-04 18:28 | 45.72054 | -146.12929 | 37181 ft | 495 kts | 106° |
| 2026-05-04 18:28 | 45.71175 | -146.03162 | 37186 ft | 495 kts | 106° |
| 2026-05-04 18:29 | 45.70288 | -145.93393 | 37184 ft | 494 kts | 106° |
| 2026-05-04 18:29 | 45.69394 | -145.83649 | 37187 ft | 494 kts | 106° |
| 2026-05-04 18:30 | 45.68038 | -145.69036 | 37177 ft | 493 kts | 106° |
| 2026-05-04 18:31 | 45.67125 | -145.59323 | 37194 ft | 493 kts | 106° |
| 2026-05-04 18:31 | 45.66204 | -145.49604 | 37159 ft | 493 kts | 106° |
| 2026-05-04 18:32 | 45.65280 | -145.39954 | 37200 ft | 493 kts | 106° |
| 2026-05-04 18:32 | 45.64344 | -145.30253 | 37202 ft | 492 kts | 106° |
| 2026-05-04 18:33 | 45.63400 | -145.20564 | 37201 ft | 492 kts | 106° |
| 2026-05-04 18:33 | 45.62446 | -145.10865 | 37202 ft | 492 kts | 106° |
| 2026-05-04 18:34 | 45.61485 | -145.01186 | 37203 ft | 492 kts | 106° |
| 2026-05-04 18:34 | 45.60519 | -144.91517 | 37206 ft | 491 kts | 106° |
| 2026-05-04 18:35 | 45.59544 | -144.81856 | 37209 ft | 491 kts | 106° |
| 2026-05-04 18:35 | 45.58560 | -144.72200 | 37211 ft | 491 kts | 106° |
| 2026-05-04 18:36 | 45.57576 | -144.62615 | 37203 ft | 490 kts | 106° |
| 2026-05-04 18:36 | 45.56582 | -144.53005 | 37229 ft | 488 kts | 106° |
| 2026-05-04 18:37 | 45.55580 | -144.43416 | 37219 ft | 488 kts | 106° |
| 2026-05-04 18:37 | 45.54571 | -144.33846 | 37222 ft | 488 kts | 106° |
| 2026-05-04 18:38 | 45.53554 | -144.24268 | 37178 ft | 487 kts | 106° |
| 2026-05-04 18:38 | 45.52538 | -144.14778 | 37222 ft | 486 kts | 106° |
| 2026-05-04 18:39 | 45.51510 | -144.05245 | 37218 ft | 486 kts | 106° |
| 2026-05-04 18:39 | 45.50473 | -143.95718 | 37217 ft | 486 kts | 106° |
| 2026-05-04 18:40 | 45.49428 | -143.86189 | 37221 ft | 486 kts | 106° |
| 2026-05-04 18:40 | 45.48381 | -143.76728 | 37217 ft | 486 kts | 106° |
| 2026-05-04 18:41 | 45.47322 | -143.67221 | 37222 ft | 485 kts | 106° |
| 2026-05-04 18:41 | 45.46435 | -143.59319 | 37219 ft | 485 kts | 106° |
| 2026-05-04 18:42 | 45.45185 | -143.48265 | 37222 ft | 485 kts | 106° |
| 2026-05-04 18:42 | 45.44288 | -143.40391 | 37206 ft | 485 kts | 105° |
| 2026-05-04 18:43 | 45.43198 | -143.30905 | 37224 ft | 485 kts | 105° |
| 2026-05-04 18:43 | 45.42105 | -143.21436 | 37224 ft | 485 kts | 105° |
| 2026-05-04 18:44 | 45.41002 | -143.11969 | 37228 ft | 484 kts | 106° |
| 2026-05-04 18:44 | 45.39897 | -143.02553 | 37227 ft | 484 kts | 106° |
| 2026-05-04 18:45 | 45.38779 | -142.93096 | 37231 ft | 484 kts | 105° |
| 2026-05-04 18:45 | 45.37655 | -142.83654 | 37218 ft | 483 kts | 105° |
| 2026-05-04 18:46 | 45.36525 | -142.74237 | 37228 ft | 483 kts | 106° |
| 2026-05-04 18:46 | 45.35386 | -142.64814 | 37229 ft | 483 kts | 106° |
| 2026-05-04 18:47 | 45.34239 | -142.55388 | 37225 ft | 483 kts | 106° |
| 2026-05-04 18:47 | 45.33087 | -142.45993 | 37224 ft | 483 kts | 106° |
| 2026-05-04 18:48 | 45.31933 | -142.36646 | 37224 ft | 483 kts | 106° |
| 2026-05-04 18:48 | 45.30766 | -142.27254 | 37225 ft | 483 kts | 106° |
| 2026-05-04 18:49 | 45.29591 | -142.17871 | 37237 ft | 482 kts | 106° |
| 2026-05-04 18:49 | 45.28408 | -142.08489 | 37238 ft | 482 kts | 106° |
| 2026-05-04 18:50 | 45.27218 | -141.99117 | 37240 ft | 482 kts | 106° |
| 2026-05-04 18:50 | 45.26022 | -141.89751 | 37233 ft | 482 kts | 106° |
| 2026-05-04 18:51 | 45.24817 | -141.80387 | 37239 ft | 482 kts | 107° |
| 2026-05-04 18:51 | 45.23606 | -141.71040 | 37234 ft | 481 kts | 107° |
| 2026-05-04 18:52 | 45.22388 | -141.61703 | 37235 ft | 481 kts | 107° |
| 2026-05-04 18:52 | 45.21172 | -141.52438 | 37232 ft | 481 kts | 107° |
| 2026-05-04 18:53 | 45.19940 | -141.43122 | 37231 ft | 480 kts | 107° |
| 2026-05-04 18:53 | 45.18700 | -141.33797 | 37218 ft | 480 kts | 107° |
| 2026-05-04 18:54 | 45.17456 | -141.24505 | 37232 ft | 479 kts | 107° |
| 2026-05-04 18:54 | 45.16215 | -141.15295 | 37236 ft | 479 kts | 107° |
| 2026-05-04 18:55 | 45.14957 | -141.06023 | 37236 ft | 479 kts | 107° |
| 2026-05-04 18:55 | 45.13056 | -140.92125 | 37231 ft | 478 kts | 107° |
| 2026-05-04 18:56 | 45.11789 | -140.82925 | 37227 ft | 478 kts | 107° |
| 2026-05-04 18:56 | 45.10509 | -140.73696 | 37228 ft | 478 kts | 107° |
| 2026-05-04 18:57 | 45.09222 | -140.64467 | 37231 ft | 478 kts | 107° |
| 2026-05-04 18:57 | 45.07925 | -140.55236 | 37211 ft | 478 kts | 106° |
| 2026-05-04 18:58 | 45.06621 | -140.46012 | 37232 ft | 478 kts | 106° |
| 2026-05-04 18:58 | 45.05310 | -140.36780 | 37230 ft | 478 kts | 106° |
| 2026-05-04 18:59 | 45.03993 | -140.27568 | 37228 ft | 478 kts | 106° |
| 2026-05-04 18:59 | 45.02676 | -140.18413 | 37230 ft | 478 kts | 107° |
| 2026-05-04 19:00 | 45.01343 | -140.09201 | 37230 ft | 478 kts | 106° |
| 2026-05-04 19:00 | 44.99800 | -140.00097 | 37233 ft | 473 kts | 113° |
| 2026-05-04 19:01 | 44.97240 | -139.91590 | 37230 ft | 469 kts | 118° |
| 2026-05-04 19:01 | 44.94456 | -139.83244 | 37230 ft | 469 kts | 119° |
| 2026-05-04 19:02 | 44.91655 | -139.74987 | 37230 ft | 469 kts | 119° |
| 2026-05-04 19:02 | 44.88844 | -139.66673 | 37227 ft | 469 kts | 119° |
| 2026-05-04 19:03 | 44.86036 | -139.58359 | 37229 ft | 469 kts | 119° |
| 2026-05-04 19:03 | 44.83221 | -139.50037 | 37230 ft | 469 kts | 119° |
| 2026-05-04 19:04 | 44.80419 | -139.41783 | 37225 ft | 469 kts | 118° |
| 2026-05-04 19:04 | 44.77598 | -139.33495 | 37225 ft | 469 kts | 118° |
| 2026-05-04 19:05 | 44.74768 | -139.25208 | 37224 ft | 469 kts | 118° |
| 2026-05-04 19:05 | 44.71933 | -139.16937 | 37484 ft | 469 kts | 118° |
| 2026-05-04 19:06 | 44.70520 | -139.12819 | 37907 ft | 465 kts | 118° |
| 2026-05-04 19:06 | 44.69115 | -139.08731 | 38389 ft | 461 kts | 118° |
| 2026-05-04 19:06 | 44.67741 | -139.04740 | 38844 ft | 458 kts | 119° |
| 2026-05-04 19:06 | 44.66341 | -139.00680 | 39136 ft | 456 kts | 119° |
| 2026-05-04 19:07 | 44.63551 | -138.92620 | 39226 ft | 461 kts | 119° |
| 2026-05-04 19:07 | 44.60765 | -138.84589 | 39229 ft | 460 kts | 118° |
| 2026-05-04 19:08 | 44.57957 | -138.76517 | 39212 ft | 461 kts | 118° |
| 2026-05-04 19:08 | 44.55138 | -138.68437 | 39228 ft | 461 kts | 119° |
| 2026-05-04 19:09 | 44.52315 | -138.60368 | 39225 ft | 461 kts | 119° |
| 2026-05-04 19:09 | 44.49484 | -138.52300 | 39212 ft | 461 kts | 119° |
| 2026-05-04 19:10 | 44.46650 | -138.44249 | 39216 ft | 461 kts | 119° |
| 2026-05-04 19:10 | 44.43810 | -138.36206 | 39218 ft | 461 kts | 119° |
| 2026-05-04 19:11 | 44.40979 | -138.28213 | 39219 ft | 461 kts | 119° |
| 2026-05-04 19:11 | 44.38127 | -138.20188 | 39217 ft | 461 kts | 118° |
| 2026-05-04 19:12 | 44.33833 | -138.08138 | 39218 ft | 461 kts | 119° |
| 2026-05-04 19:13 | 44.30960 | -138.00105 | 39215 ft | 461 kts | 119° |
| 2026-05-04 19:13 | 44.28105 | -137.92151 | 39211 ft | 461 kts | 118° |
| 2026-05-04 19:14 | 44.25222 | -137.84140 | 39209 ft | 461 kts | 118° |
| 2026-05-04 19:14 | 44.22332 | -137.76131 | 39210 ft | 462 kts | 118° |
| 2026-05-04 19:15 | 44.19438 | -137.68135 | 39214 ft | 461 kts | 118° |
| 2026-05-04 19:15 | 44.16558 | -137.60204 | 39209 ft | 462 kts | 118° |
| 2026-05-04 19:16 | 44.13654 | -137.52227 | 39212 ft | 461 kts | 118° |
| 2026-05-04 19:16 | 44.10742 | -137.44252 | 39207 ft | 461 kts | 118° |
| 2026-05-04 19:17 | 44.07829 | -137.36297 | 39209 ft | 461 kts | 118° |
| 2026-05-04 19:17 | 44.04936 | -137.28421 | 39206 ft | 460 kts | 118° |
| 2026-05-04 19:18 | 44.02028 | -137.20523 | 39208 ft | 459 kts | 118° |
| 2026-05-04 19:18 | 43.99115 | -137.12634 | 39203 ft | 459 kts | 118° |
| 2026-05-04 19:19 | 43.96191 | -137.04739 | 39202 ft | 459 kts | 118° |
| 2026-05-04 19:19 | 43.93265 | -136.96864 | 39203 ft | 458 kts | 118° |
| 2026-05-04 19:20 | 43.90339 | -136.89007 | 39201 ft | 458 kts | 118° |
| 2026-05-04 19:20 | 43.87406 | -136.81156 | 39201 ft | 458 kts | 118° |
| 2026-05-04 19:21 | 43.84490 | -136.73370 | 39200 ft | 458 kts | 117° |
| 2026-05-04 19:21 | 43.81548 | -136.65541 | 39195 ft | 458 kts | 117° |
| 2026-05-04 19:22 | 43.78602 | -136.57719 | 39194 ft | 457 kts | 117° |
| 2026-05-04 19:22 | 43.75656 | -136.49918 | 39196 ft | 457 kts | 117° |
| 2026-05-04 19:23 | 43.72703 | -136.42124 | 39191 ft | 457 kts | 117° |
| 2026-05-04 19:23 | 43.69748 | -136.34347 | 39189 ft | 456 kts | 117° |
| 2026-05-04 19:24 | 43.66792 | -136.26584 | 39190 ft | 456 kts | 117° |
| 2026-05-04 19:24 | 43.63851 | -136.18885 | 39187 ft | 456 kts | 117° |
| 2026-05-04 19:25 | 43.60882 | -136.11138 | 39190 ft | 455 kts | 117° |
| 2026-05-04 19:25 | 43.57916 | -136.03415 | 39187 ft | 455 kts | 117° |
| 2026-05-04 19:26 | 43.54947 | -135.95703 | 39182 ft | 455 kts | 117° |
| 2026-05-04 19:26 | 43.51976 | -135.88006 | 39184 ft | 455 kts | 117° |
| 2026-05-04 19:27 | 43.49001 | -135.80326 | 39180 ft | 454 kts | 117° |
| 2026-05-04 19:27 | 43.47132 | -135.75511 | 39181 ft | 453 kts | 117° |